sensor_id;sensor_type;location;lat;lon;timestamp;temperature;humidity
21734;DHT22;11029;47.820;10.534;2022-10-26T00:03:37;9.60;82.20
21734;DHT22;11029;47.820;10.534;2022-10-26T00:06:09;9.60;81.90
21734;DHT22;11029;47.820;10.534;2022-10-26T00:08:36;9.70;81.60
21734;DHT22;11029;47.820;10.534;2022-10-26T00:11:03;9.80;81.20
21734;DHT22;11029;47.820;10.534;2022-10-26T00:13:30;9.70;81.30
21734;DHT22;11029;47.820;10.534;2022-10-26T00:15:57;9.70;82.10
21734;DHT22;11029;47.820;10.534;2022-10-26T00:18:24;9.80;82.20
21734;DHT22;11029;47.820;10.534;2022-10-26T00:20:51;9.80;81.50
21734;DHT22;11029;47.820;10.534;2022-10-26T00:23:17;9.80;82.20
21734;DHT22;11029;47.820;10.534;2022-10-26T00:25:50;9.90;81.90
21734;DHT22;11029;47.820;10.534;2022-10-26T00:28:19;10.00;81.10
21734;DHT22;11029;47.820;10.534;2022-10-26T00:30:45;9.90;81.10
21734;DHT22;11029;47.820;10.534;2022-10-26T00:33:13;9.90;81.20
21734;DHT22;11029;47.820;10.534;2022-10-26T00:35:39;9.90;81.00
21734;DHT22;11029;47.820;10.534;2022-10-26T00:38:12;9.90;81.50
21734;DHT22;11029;47.820;10.534;2022-10-26T00:40:39;9.90;81.50
21734;DHT22;11029;47.820;10.534;2022-10-26T00:43:14;9.90;81.80
21734;DHT22;11029;47.820;10.534;2022-10-26T00:45:42;10.00;81.50
21734;DHT22;11029;47.820;10.534;2022-10-26T00:48:30;10.00;81.90
21734;DHT22;11029;47.820;10.534;2022-10-26T00:51:02;10.00;81.70
21734;DHT22;11029;47.820;10.534;2022-10-26T00:53:31;10.10;81.30
21734;DHT22;11029;47.820;10.534;2022-10-26T00:55:59;10.10;81.20
21734;DHT22;11029;47.820;10.534;2022-10-26T00:58:26;10.20;80.60
21734;DHT22;11029;47.820;10.534;2022-10-26T01:00:53;10.10;81.20
21734;DHT22;11029;47.820;10.534;2022-10-26T01:03:21;10.10;80.90
21734;DHT22;11029;47.820;10.534;2022-10-26T01:05:54;10.00;81.60
21734;DHT22;11029;47.820;10.534;2022-10-26T01:08:22;10.00;81.70
21734;DHT22;11029;47.820;10.534;2022-10-26T01:10:49;10.00;82.30
21734;DHT22;11029;47.820;10.534;2022-10-26T01:13:17;10.00;82.80
21734;DHT22;11029;47.820;10.534;2022-10-26T01:21:47;10.10;83.00
21734;DHT22;11029;47.820;10.534;2022-10-26T01:24:42;10.10;83.20
21734;DHT22;11029;47.820;10.534;2022-10-26T01:32:56;10.20;83.20
21734;DHT22;11029;47.820;10.534;2022-10-26T01:35:42;10.10;84.20
21734;DHT22;11029;47.820;10.534;2022-10-26T01:38:46;10.10;84.00
21734;DHT22;11029;47.820;10.534;2022-10-26T01:41:29;10.10;83.80
21734;DHT22;11029;47.820;10.534;2022-10-26T01:44:18;10.20;83.50
21734;DHT22;11029;47.820;10.534;2022-10-26T01:46:48;10.10;83.40
21734;DHT22;11029;47.820;10.534;2022-10-26T01:49:20;10.00;84.70
21734;DHT22;11029;47.820;10.534;2022-10-26T01:51:49;10.00;85.60
21734;DHT22;11029;47.820;10.534;2022-10-26T01:54:16;10.00;85.20
21734;DHT22;11029;47.820;10.534;2022-10-26T01:56:50;10.20;84.70
21734;DHT22;11029;47.820;10.534;2022-10-26T02:07:33;10.30;83.60
21734;DHT22;11029;47.820;10.534;2022-10-26T02:12:59;10.30;83.00
21734;DHT22;11029;47.820;10.534;2022-10-26T02:21:16;10.30;83.10
21734;DHT22;11029;47.820;10.534;2022-10-26T02:23:46;10.20;83.40
21734;DHT22;11029;47.820;10.534;2022-10-26T02:26:16;10.20;83.80
21734;DHT22;11029;47.820;10.534;2022-10-26T02:28:48;10.20;84.00
21734;DHT22;11029;47.820;10.534;2022-10-26T02:31:17;10.10;84.10
21734;DHT22;11029;47.820;10.534;2022-10-26T02:33:48;10.10;84.00
21734;DHT22;11029;47.820;10.534;2022-10-26T02:36:24;10.10;83.80
21734;DHT22;11029;47.820;10.534;2022-10-26T02:38:53;10.00;84.50
21734;DHT22;11029;47.820;10.534;2022-10-26T02:41:21;10.00;84.40
21734;DHT22;11029;47.820;10.534;2022-10-26T02:43:56;10.00;84.50
21734;DHT22;11029;47.820;10.534;2022-10-26T02:46:25;10.10;84.00
21734;DHT22;11029;47.820;10.534;2022-10-26T02:48:54;10.00;84.00
21734;DHT22;11029;47.820;10.534;2022-10-26T02:59:11;9.80;83.80
21734;DHT22;11029;47.820;10.534;2022-10-26T03:01:39;9.80;83.40
21734;DHT22;11029;47.820;10.534;2022-10-26T03:04:07;9.70;83.80
21734;DHT22;11029;47.820;10.534;2022-10-26T03:06:34;9.70;84.00
21734;DHT22;11029;47.820;10.534;2022-10-26T03:09:01;9.60;84.30
21734;DHT22;11029;47.820;10.534;2022-10-26T03:11:27;9.70;83.70
21734;DHT22;11029;47.820;10.534;2022-10-26T03:13:54;9.60;83.60
21734;DHT22;11029;47.820;10.534;2022-10-26T03:16:21;9.60;83.60
21734;DHT22;11029;47.820;10.534;2022-10-26T03:18:48;9.60;82.20
21734;DHT22;11029;47.820;10.534;2022-10-26T03:21:14;9.40;83.90
21734;DHT22;11029;47.820;10.534;2022-10-26T03:23:41;9.30;84.90
21734;DHT22;11029;47.820;10.534;2022-10-26T03:26:08;9.30;85.20
21734;DHT22;11029;47.820;10.534;2022-10-26T03:28:34;9.30;85.70
21734;DHT22;11029;47.820;10.534;2022-10-26T03:31:01;9.40;85.90
21734;DHT22;11029;47.820;10.534;2022-10-26T03:33:28;9.50;85.80
21734;DHT22;11029;47.820;10.534;2022-10-26T03:35:55;9.60;85.60
21734;DHT22;11029;47.820;10.534;2022-10-26T03:38:22;9.70;85.20
21734;DHT22;11029;47.820;10.534;2022-10-26T03:40:49;9.70;84.90
21734;DHT22;11029;47.820;10.534;2022-10-26T03:43:16;9.80;85.10
21734;DHT22;11029;47.820;10.534;2022-10-26T03:45:43;9.80;84.60
21734;DHT22;11029;47.820;10.534;2022-10-26T03:48:10;9.80;84.00
21734;DHT22;11029;47.820;10.534;2022-10-26T03:50:36;9.80;83.90
21734;DHT22;11029;47.820;10.534;2022-10-26T03:53:03;9.80;83.40
21734;DHT22;11029;47.820;10.534;2022-10-26T03:55:30;9.80;84.50
21734;DHT22;11029;47.820;10.534;2022-10-26T03:57:57;9.80;84.30
21734;DHT22;11029;47.820;10.534;2022-10-26T04:00:24;9.70;85.20
21734;DHT22;11029;47.820;10.534;2022-10-26T04:02:56;9.80;85.50
21734;DHT22;11029;47.820;10.534;2022-10-26T04:05:25;9.80;85.10
21734;DHT22;11029;47.820;10.534;2022-10-26T04:07:56;9.90;85.00
21734;DHT22;11029;47.820;10.534;2022-10-26T04:10:24;9.70;86.00
21734;DHT22;11029;47.820;10.534;2022-10-26T04:12:51;9.70;84.70
21734;DHT22;11029;47.820;10.534;2022-10-26T04:15:19;10.10;81.50
21734;DHT22;11029;47.820;10.534;2022-10-26T04:17:46;10.60;78.00
21734;DHT22;11029;47.820;10.534;2022-10-26T04:20:14;11.10;75.80
21734;DHT22;11029;47.820;10.534;2022-10-26T04:22:41;11.30;75.60
21734;DHT22;11029;47.820;10.534;2022-10-26T04:25:07;11.40;74.80
21734;DHT22;11029;47.820;10.534;2022-10-26T04:27:35;11.40;75.80
21734;DHT22;11029;47.820;10.534;2022-10-26T04:30:02;11.30;76.50
21734;DHT22;11029;47.820;10.534;2022-10-26T04:32:31;11.40;76.20
21734;DHT22;11029;47.820;10.534;2022-10-26T04:34:57;11.30;77.10
21734;DHT22;11029;47.820;10.534;2022-10-26T04:37:24;11.30;77.10
21734;DHT22;11029;47.820;10.534;2022-10-26T04:39:51;11.30;77.40
21734;DHT22;11029;47.820;10.534;2022-10-26T04:42:18;11.20;78.30
21734;DHT22;11029;47.820;10.534;2022-10-26T04:44:44;11.20;78.80
21734;DHT22;11029;47.820;10.534;2022-10-26T04:47:11;11.20;79.30
21734;DHT22;11029;47.820;10.534;2022-10-26T04:49:38;11.20;79.60
21734;DHT22;11029;47.820;10.534;2022-10-26T04:52:05;11.10;79.70
21734;DHT22;11029;47.820;10.534;2022-10-26T04:54:31;11.10;80.40
21734;DHT22;11029;47.820;10.534;2022-10-26T04:56:58;11.00;81.50
21734;DHT22;11029;47.820;10.534;2022-10-26T04:59:25;10.90;82.20
21734;DHT22;11029;47.820;10.534;2022-10-26T05:01:51;10.80;82.50
21734;DHT22;11029;47.820;10.534;2022-10-26T05:04:19;10.70;82.60
21734;DHT22;11029;47.820;10.534;2022-10-26T05:06:46;10.70;82.50
21734;DHT22;11029;47.820;10.534;2022-10-26T05:09:12;10.70;82.70
21734;DHT22;11029;47.820;10.534;2022-10-26T05:11:39;10.80;82.80
21734;DHT22;11029;47.820;10.534;2022-10-26T05:14:06;10.80;82.60
21734;DHT22;11029;47.820;10.534;2022-10-26T05:16:32;10.90;81.90
21734;DHT22;11029;47.820;10.534;2022-10-26T05:18:59;11.10;81.10
21734;DHT22;11029;47.820;10.534;2022-10-26T05:21:26;11.20;81.00
21734;DHT22;11029;47.820;10.534;2022-10-26T05:23:53;11.30;80.50
21734;DHT22;11029;47.820;10.534;2022-10-26T05:26:22;11.30;80.30
21734;DHT22;11029;47.820;10.534;2022-10-26T05:28:50;11.40;80.10
21734;DHT22;11029;47.820;10.534;2022-10-26T05:31:18;11.50;79.90
21734;DHT22;11029;47.820;10.534;2022-10-26T05:33:48;11.50;80.00
21734;DHT22;11029;47.820;10.534;2022-10-26T05:36:17;11.50;80.10
21734;DHT22;11029;47.820;10.534;2022-10-26T05:38:43;11.50;80.00
21734;DHT22;11029;47.820;10.534;2022-10-26T05:41:11;11.50;80.10
21734;DHT22;11029;47.820;10.534;2022-10-26T05:43:38;11.50;80.40
21734;DHT22;11029;47.820;10.534;2022-10-26T05:46:04;11.50;80.60
21734;DHT22;11029;47.820;10.534;2022-10-26T05:48:31;11.50;80.40
21734;DHT22;11029;47.820;10.534;2022-10-26T05:51:00;11.50;80.80
21734;DHT22;11029;47.820;10.534;2022-10-26T05:53:27;11.50;81.00
21734;DHT22;11029;47.820;10.534;2022-10-26T05:55:55;11.50;81.20
21734;DHT22;11029;47.820;10.534;2022-10-26T05:58:22;11.50;81.40
21734;DHT22;11029;47.820;10.534;2022-10-26T06:01:12;11.50;81.70
21734;DHT22;11029;47.820;10.534;2022-10-26T06:04:04;11.50;81.70
21734;DHT22;11029;47.820;10.534;2022-10-26T06:06:42;11.50;81.90
21734;DHT22;11029;47.820;10.534;2022-10-26T06:09:13;11.50;82.10
21734;DHT22;11029;47.820;10.534;2022-10-26T06:11:40;11.50;82.10
21734;DHT22;11029;47.820;10.534;2022-10-26T06:14:08;11.50;82.10
21734;DHT22;11029;47.820;10.534;2022-10-26T06:19:36;11.40;82.90
21734;DHT22;11029;47.820;10.534;2022-10-26T06:22:18;11.40;83.40
21734;DHT22;11029;47.820;10.534;2022-10-26T06:30:17;11.40;84.10
21734;DHT22;11029;47.820;10.534;2022-10-26T06:32:45;11.40;84.30
21734;DHT22;11029;47.820;10.534;2022-10-26T06:37:44;11.30;84.50
21734;DHT22;11029;47.820;10.534;2022-10-26T06:40:13;11.30;84.70
21734;DHT22;11029;47.820;10.534;2022-10-26T06:42:41;11.30;84.40
21734;DHT22;11029;47.820;10.534;2022-10-26T06:45:12;11.30;84.60
21734;DHT22;11029;47.820;10.534;2022-10-26T06:50:51;11.30;84.60
21734;DHT22;11029;47.820;10.534;2022-10-26T06:53:43;11.30;84.40
21734;DHT22;11029;47.820;10.534;2022-10-26T06:56:12;11.30;84.20
21734;DHT22;11029;47.820;10.534;2022-10-26T06:58:39;11.20;84.50
21734;DHT22;11029;47.820;10.534;2022-10-26T07:01:10;11.20;84.70
21734;DHT22;11029;47.820;10.534;2022-10-26T07:03:37;11.30;84.60
21734;DHT22;11029;47.820;10.534;2022-10-26T07:06:04;11.30;84.60
21734;DHT22;11029;47.820;10.534;2022-10-26T07:08:31;11.30;84.80
21734;DHT22;11029;47.820;10.534;2022-10-26T07:10:58;11.30;84.70
21734;DHT22;11029;47.820;10.534;2022-10-26T07:13:25;11.40;84.60
21734;DHT22;11029;47.820;10.534;2022-10-26T07:15:51;11.50;84.40
21734;DHT22;11029;47.820;10.534;2022-10-26T07:18:18;11.50;84.10
21734;DHT22;11029;47.820;10.534;2022-10-26T07:20:45;11.60;83.90
21734;DHT22;11029;47.820;10.534;2022-10-26T07:23:11;11.60;84.00
21734;DHT22;11029;47.820;10.534;2022-10-26T07:25:38;11.60;84.20
21734;DHT22;11029;47.820;10.534;2022-10-26T07:28:08;11.60;84.40
21734;DHT22;11029;47.820;10.534;2022-10-26T07:30:38;11.70;84.50
21734;DHT22;11029;47.820;10.534;2022-10-26T07:33:11;11.80;84.60
21734;DHT22;11029;47.820;10.534;2022-10-26T07:35:38;11.80;84.30
21734;DHT22;11029;47.820;10.534;2022-10-26T07:38:05;11.90;84.10
21734;DHT22;11029;47.820;10.534;2022-10-26T07:40:32;12.00;83.90
21734;DHT22;11029;47.820;10.534;2022-10-26T07:42:59;12.10;83.80
21734;DHT22;11029;47.820;10.534;2022-10-26T07:45:28;12.10;83.40
21734;DHT22;11029;47.820;10.534;2022-10-26T07:47:55;12.30;83.10
21734;DHT22;11029;47.820;10.534;2022-10-26T07:50:23;12.30;82.90
21734;DHT22;11029;47.820;10.534;2022-10-26T07:52:49;12.40;82.90
21734;DHT22;11029;47.820;10.534;2022-10-26T07:55:17;12.40;82.70
21734;DHT22;11029;47.820;10.534;2022-10-26T07:57:44;12.50;82.50
21734;DHT22;11029;47.820;10.534;2022-10-26T08:00:16;12.50;82.00
21734;DHT22;11029;47.820;10.534;2022-10-26T08:02:43;12.60;81.90
21734;DHT22;11029;47.820;10.534;2022-10-26T08:05:10;12.60;81.50
21734;DHT22;11029;47.820;10.534;2022-10-26T08:07:41;12.80;78.90
21734;DHT22;11029;47.820;10.534;2022-10-26T08:10:09;13.00;77.70
21734;DHT22;11029;47.820;10.534;2022-10-26T08:12:36;13.10;76.80
21734;DHT22;11029;47.820;10.534;2022-10-26T08:15:03;13.30;75.40
21734;DHT22;11029;47.820;10.534;2022-10-26T08:17:30;13.40;74.90
21734;DHT22;11029;47.820;10.534;2022-10-26T08:19:58;13.50;73.00
21734;DHT22;11029;47.820;10.534;2022-10-26T08:22:28;13.60;72.60
21734;DHT22;11029;47.820;10.534;2022-10-26T08:24:55;13.70;72.20
21734;DHT22;11029;47.820;10.534;2022-10-26T08:27:22;13.70;72.40
21734;DHT22;11029;47.820;10.534;2022-10-26T08:29:49;13.70;73.00
21734;DHT22;11029;47.820;10.534;2022-10-26T08:32:15;13.70;72.50
21734;DHT22;11029;47.820;10.534;2022-10-26T08:34:42;13.70;73.30
21734;DHT22;11029;47.820;10.534;2022-10-26T08:37:09;13.70;72.70
21734;DHT22;11029;47.820;10.534;2022-10-26T08:39:35;13.80;71.60
21734;DHT22;11029;47.820;10.534;2022-10-26T08:42:14;13.80;72.10
21734;DHT22;11029;47.820;10.534;2022-10-26T08:44:46;13.80;72.30
21734;DHT22;11029;47.820;10.534;2022-10-26T08:47:22;13.80;72.40
21734;DHT22;11029;47.820;10.534;2022-10-26T08:50:12;13.70;71.80
21734;DHT22;11029;47.820;10.534;2022-10-26T08:52:47;13.80;71.50
21734;DHT22;11029;47.820;10.534;2022-10-26T08:55:19;13.90;71.10
21734;DHT22;11029;47.820;10.534;2022-10-26T08:57:47;13.90;70.30
21734;DHT22;11029;47.820;10.534;2022-10-26T09:00:23;14.00;70.50
21734;DHT22;11029;47.820;10.534;2022-10-26T09:02:51;14.00;70.20
21734;DHT22;11029;47.820;10.534;2022-10-26T09:05:31;14.10;70.80
21734;DHT22;11029;47.820;10.534;2022-10-26T09:14:27;14.40;69.60
21734;DHT22;11029;47.820;10.534;2022-10-26T09:25:19;14.60;69.60
21734;DHT22;11029;47.820;10.534;2022-10-26T09:27:50;14.60;69.60
21734;DHT22;11029;47.820;10.534;2022-10-26T09:30:20;14.60;68.30
21734;DHT22;11029;47.820;10.534;2022-10-26T09:32:49;14.60;69.90
21734;DHT22;11029;47.820;10.534;2022-10-26T09:35:24;14.60;69.90
21734;DHT22;11029;47.820;10.534;2022-10-26T09:37:57;14.50;70.30
21734;DHT22;11029;47.820;10.534;2022-10-26T09:40:41;14.50;69.40
21734;DHT22;11029;47.820;10.534;2022-10-26T09:43:28;14.50;70.80
21734;DHT22;11029;47.820;10.534;2022-10-26T09:45:58;14.50;71.00
21734;DHT22;11029;47.820;10.534;2022-10-26T09:48:40;14.60;70.50
21734;DHT22;11029;47.820;10.534;2022-10-26T09:51:08;14.60;70.40
21734;DHT22;11029;47.820;10.534;2022-10-26T09:53:36;14.60;70.50
21734;DHT22;11029;47.820;10.534;2022-10-26T09:56:05;14.60;70.80
21734;DHT22;11029;47.820;10.534;2022-10-26T09:59:01;14.70;70.10
21734;DHT22;11029;47.820;10.534;2022-10-26T10:01:31;14.80;70.10
21734;DHT22;11029;47.820;10.534;2022-10-26T10:06:43;14.90;69.90
21734;DHT22;11029;47.820;10.534;2022-10-26T10:09:19;14.90;70.00
21734;DHT22;11029;47.820;10.534;2022-10-26T10:11:50;14.90;71.30
21734;DHT22;11029;47.820;10.534;2022-10-26T10:14:27;15.00;70.20
21734;DHT22;11029;47.820;10.534;2022-10-26T10:16:59;15.00;70.80
21734;DHT22;11029;47.820;10.534;2022-10-26T10:19:34;15.00;71.50
21734;DHT22;11029;47.820;10.534;2022-10-26T10:24:51;15.00;70.70
21734;DHT22;11029;47.820;10.534;2022-10-26T10:27:19;15.00;70.80
21734;DHT22;11029;47.820;10.534;2022-10-26T10:29:51;15.10;71.10
21734;DHT22;11029;47.820;10.534;2022-10-26T10:32:27;15.20;71.00
21734;DHT22;11029;47.820;10.534;2022-10-26T10:35:23;15.20;70.50
21734;DHT22;11029;47.820;10.534;2022-10-26T10:37:51;15.30;69.70
21734;DHT22;11029;47.820;10.534;2022-10-26T10:40:23;15.40;69.40
21734;DHT22;11029;47.820;10.534;2022-10-26T10:42:53;15.60;69.60
21734;DHT22;11029;47.820;10.534;2022-10-26T10:45:28;15.90;66.60
21734;DHT22;11029;47.820;10.534;2022-10-26T10:48:02;16.00;66.40
21734;DHT22;11029;47.820;10.534;2022-10-26T10:50:30;16.10;67.50
21734;DHT22;11029;47.820;10.534;2022-10-26T11:01:30;16.70;64.40
21734;DHT22;11029;47.820;10.534;2022-10-26T11:04:24;16.70;63.60
21734;DHT22;11029;47.820;10.534;2022-10-26T11:06:55;16.70;63.20
21734;DHT22;11029;47.820;10.534;2022-10-26T11:09:27;16.60;64.20
21734;DHT22;11029;47.820;10.534;2022-10-26T11:11:58;16.50;64.30
21734;DHT22;11029;47.820;10.534;2022-10-26T11:14:28;16.60;64.60
21734;DHT22;11029;47.820;10.534;2022-10-26T11:17:26;16.70;65.20
21734;DHT22;11029;47.820;10.534;2022-10-26T11:19:52;16.80;64.90
21734;DHT22;11029;47.820;10.534;2022-10-26T11:22:27;16.90;64.60
21734;DHT22;11029;47.820;10.534;2022-10-26T11:24:58;17.00;63.90
21734;DHT22;11029;47.820;10.534;2022-10-26T11:30:17;17.20;64.20
21734;DHT22;11029;47.820;10.534;2022-10-26T11:35:31;17.60;63.60
21734;DHT22;11029;47.820;10.534;2022-10-26T11:38:50;17.80;61.40
21734;DHT22;11029;47.820;10.534;2022-10-26T11:41:39;17.90;61.60
21734;DHT22;11029;47.820;10.534;2022-10-26T11:44:14;18.10;59.50
21734;DHT22;11029;47.820;10.534;2022-10-26T11:46:53;18.10;59.30
21734;DHT22;11029;47.820;10.534;2022-10-26T11:49:33;18.10;58.60
21734;DHT22;11029;47.820;10.534;2022-10-26T11:57:14;18.30;59.40
21734;DHT22;11029;47.820;10.534;2022-10-26T11:59:46;18.30;56.50
21734;DHT22;11029;47.820;10.534;2022-10-26T12:02:18;18.30;55.80
21734;DHT22;11029;47.820;10.534;2022-10-26T12:04:58;18.30;54.20
21734;DHT22;11029;47.820;10.534;2022-10-26T12:07:28;18.30;53.60
21734;DHT22;11029;47.820;10.534;2022-10-26T12:09:56;18.20;54.30
21734;DHT22;11029;47.820;10.534;2022-10-26T12:12:46;18.20;54.80
21734;DHT22;11029;47.820;10.534;2022-10-26T12:15:33;18.40;54.20
21734;DHT22;11029;47.820;10.534;2022-10-26T12:18:48;18.60;56.20
21734;DHT22;11029;47.820;10.534;2022-10-26T12:21:25;18.80;57.80
21734;DHT22;11029;47.820;10.534;2022-10-26T12:23:58;18.60;54.80
21734;DHT22;11029;47.820;10.534;2022-10-26T12:34:12;18.10;57.10
21734;DHT22;11029;47.820;10.534;2022-10-26T12:39:30;17.90;57.40
21734;DHT22;11029;47.820;10.534;2022-10-26T12:47:08;17.60;56.70
21734;DHT22;11029;47.820;10.534;2022-10-26T12:49:58;17.50;56.70
21734;DHT22;11029;47.820;10.534;2022-10-26T12:55:15;17.40;57.70
21734;DHT22;11029;47.820;10.534;2022-10-26T13:00:17;17.30;58.80
21734;DHT22;11029;47.820;10.534;2022-10-26T13:05:57;17.30;58.00
21734;DHT22;11029;47.820;10.534;2022-10-26T13:08:41;17.30;58.50
21734;DHT22;11029;47.820;10.534;2022-10-26T13:13:57;17.20;59.90
21734;DHT22;11029;47.820;10.534;2022-10-26T13:16:26;17.20;59.80
21734;DHT22;11029;47.820;10.534;2022-10-26T13:18:54;17.20;59.80
21734;DHT22;11029;47.820;10.534;2022-10-26T13:21:22;17.20;59.90
21734;DHT22;11029;47.820;10.534;2022-10-26T13:26:26;17.20;60.20
21734;DHT22;11029;47.820;10.534;2022-10-26T13:28:58;17.20;60.90
21734;DHT22;11029;47.820;10.534;2022-10-26T13:34:00;17.10;61.30
21734;DHT22;11029;47.820;10.534;2022-10-26T13:39:20;17.10;60.80
21734;DHT22;11029;47.820;10.534;2022-10-26T13:41:50;17.10;60.80
21734;DHT22;11029;47.820;10.534;2022-10-26T13:47:43;17.00;61.20
21734;DHT22;11029;47.820;10.534;2022-10-26T13:50:26;17.00;61.20
21734;DHT22;11029;47.820;10.534;2022-10-26T13:53:03;17.00;61.20
21734;DHT22;11029;47.820;10.534;2022-10-26T13:55:44;17.10;61.10
21734;DHT22;11029;47.820;10.534;2022-10-26T13:58:27;17.30;60.80
21734;DHT22;11029;47.820;10.534;2022-10-26T14:03:36;17.20;61.10
21734;DHT22;11029;47.820;10.534;2022-10-26T14:06:26;17.20;60.50
21734;DHT22;11029;47.820;10.534;2022-10-26T14:08:58;17.20;60.80
21734;DHT22;11029;47.820;10.534;2022-10-26T14:11:35;17.20;61.10
21734;DHT22;11029;47.820;10.534;2022-10-26T14:14:03;17.20;61.00
21734;DHT22;11029;47.820;10.534;2022-10-26T14:16:32;17.20;61.20
21734;DHT22;11029;47.820;10.534;2022-10-26T14:18:59;17.20;61.40
21734;DHT22;11029;47.820;10.534;2022-10-26T14:21:26;17.20;61.10
21734;DHT22;11029;47.820;10.534;2022-10-26T14:23:58;17.20;61.40
21734;DHT22;11029;47.820;10.534;2022-10-26T14:26:39;17.20;60.10
21734;DHT22;11029;47.820;10.534;2022-10-26T14:29:23;17.20;61.30
21734;DHT22;11029;47.820;10.534;2022-10-26T14:31:50;17.10;61.80
21734;DHT22;11029;47.820;10.534;2022-10-26T14:34:18;17.40;61.70
21734;DHT22;11029;47.820;10.534;2022-10-26T14:39:31;18.80;59.30
21734;DHT22;11029;47.820;10.534;2022-10-26T14:42:00;19.20;57.00
21734;DHT22;11029;47.820;10.534;2022-10-26T14:44:29;18.70;56.90
21734;DHT22;11029;47.820;10.534;2022-10-26T14:46:55;18.30;58.80
21734;DHT22;11029;47.820;10.534;2022-10-26T14:49:24;17.90;60.10
21734;DHT22;11029;47.820;10.534;2022-10-26T14:52:03;17.70;60.50
21734;DHT22;11029;47.820;10.534;2022-10-26T14:54:30;17.50;60.70
21734;DHT22;11029;47.820;10.534;2022-10-26T14:56:57;17.40;61.00
21734;DHT22;11029;47.820;10.534;2022-10-26T14:59:29;17.30;61.40
21734;DHT22;11029;47.820;10.534;2022-10-26T15:02:17;17.30;61.30
21734;DHT22;11029;47.820;10.534;2022-10-26T15:05:14;17.30;60.90
21734;DHT22;11029;47.820;10.534;2022-10-26T15:07:42;17.40;61.50
21734;DHT22;11029;47.820;10.534;2022-10-26T15:13:26;18.20;59.60
21734;DHT22;11029;47.820;10.534;2022-10-26T15:15:57;19.50;56.20
21734;DHT22;11029;47.820;10.534;2022-10-26T15:18:34;20.70;53.10
21734;DHT22;11029;47.820;10.534;2022-10-26T15:21:01;21.10;51.60
21734;DHT22;11029;47.820;10.534;2022-10-26T15:23:29;20.80;51.30
21734;DHT22;11029;47.820;10.534;2022-10-26T15:25:59;20.60;52.20
21734;DHT22;11029;47.820;10.534;2022-10-26T15:28:28;20.40;51.70
21734;DHT22;11029;47.820;10.534;2022-10-26T15:31:04;19.80;53.60
21734;DHT22;11029;47.820;10.534;2022-10-26T15:33:33;19.10;55.60
21734;DHT22;11029;47.820;10.534;2022-10-26T15:38:34;18.00;58.60
21734;DHT22;11029;47.820;10.534;2022-10-26T15:41:02;17.80;59.60
21734;DHT22;11029;47.820;10.534;2022-10-26T15:43:29;17.60;60.90
21734;DHT22;11029;47.820;10.534;2022-10-26T15:45:56;17.40;61.60
21734;DHT22;11029;47.820;10.534;2022-10-26T15:48:24;17.10;61.90
21734;DHT22;11029;47.820;10.534;2022-10-26T15:50:54;16.90;63.10
21734;DHT22;11029;47.820;10.534;2022-10-26T15:53:23;16.70;63.50
21734;DHT22;11029;47.820;10.534;2022-10-26T15:55:55;16.60;63.80
21734;DHT22;11029;47.820;10.534;2022-10-26T15:58:22;16.50;63.80
21734;DHT22;11029;47.820;10.534;2022-10-26T16:00:49;16.40;64.10
21734;DHT22;11029;47.820;10.534;2022-10-26T16:03:19;16.40;64.20
21734;DHT22;11029;47.820;10.534;2022-10-26T16:05:50;16.30;64.30
21734;DHT22;11029;47.820;10.534;2022-10-26T16:08:18;16.20;64.50
21734;DHT22;11029;47.820;10.534;2022-10-26T16:10:45;16.10;64.80
21734;DHT22;11029;47.820;10.534;2022-10-26T16:13:13;16.00;65.00
21734;DHT22;11029;47.820;10.534;2022-10-26T16:15:40;15.80;65.40
21734;DHT22;11029;47.820;10.534;2022-10-26T16:18:07;15.70;65.80
21734;DHT22;11029;47.820;10.534;2022-10-26T16:20:34;15.60;66.40
21734;DHT22;11029;47.820;10.534;2022-10-26T16:23:01;15.50;66.40
21734;DHT22;11029;47.820;10.534;2022-10-26T16:25:41;15.30;66.80
21734;DHT22;11029;47.820;10.534;2022-10-26T16:28:10;15.20;67.60
21734;DHT22;11029;47.820;10.534;2022-10-26T16:30:37;15.10;68.20
21734;DHT22;11029;47.820;10.534;2022-10-26T16:33:04;14.90;68.90
21734;DHT22;11029;47.820;10.534;2022-10-26T16:35:31;14.90;69.10
21734;DHT22;11029;47.820;10.534;2022-10-26T16:37:57;14.80;69.60
21734;DHT22;11029;47.820;10.534;2022-10-26T16:40:24;14.80;70.00
21734;DHT22;11029;47.820;10.534;2022-10-26T16:42:52;14.60;71.00
21734;DHT22;11029;47.820;10.534;2022-10-26T16:45:18;14.50;71.20
21734;DHT22;11029;47.820;10.534;2022-10-26T16:47:45;14.40;71.50
21734;DHT22;11029;47.820;10.534;2022-10-26T16:50:12;14.40;71.50
21734;DHT22;11029;47.820;10.534;2022-10-26T16:52:40;14.30;70.40
21734;DHT22;11029;47.820;10.534;2022-10-26T16:55:07;14.10;71.10
21734;DHT22;11029;47.820;10.534;2022-10-26T16:57:35;13.90;71.60
21734;DHT22;11029;47.820;10.534;2022-10-26T17:00:04;13.80;72.10
21734;DHT22;11029;47.820;10.534;2022-10-26T17:02:31;13.70;72.50
21734;DHT22;11029;47.820;10.534;2022-10-26T17:04:58;13.70;72.40
21734;DHT22;11029;47.820;10.534;2022-10-26T17:07:31;13.60;72.70
21734;DHT22;11029;47.820;10.534;2022-10-26T17:09:58;13.50;72.50
21734;DHT22;11029;47.820;10.534;2022-10-26T17:12:24;13.40;72.50
21734;DHT22;11029;47.820;10.534;2022-10-26T17:14:52;13.40;72.60
21734;DHT22;11029;47.820;10.534;2022-10-26T17:17:19;13.30;72.30
21734;DHT22;11029;47.820;10.534;2022-10-26T17:19:45;13.20;73.00
21734;DHT22;11029;47.820;10.534;2022-10-26T17:22:12;13.20;73.40
21734;DHT22;11029;47.820;10.534;2022-10-26T17:24:39;13.20;73.20
21734;DHT22;11029;47.820;10.534;2022-10-26T17:27:06;13.00;73.70
21734;DHT22;11029;47.820;10.534;2022-10-26T17:29:32;13.00;72.70
21734;DHT22;11029;47.820;10.534;2022-10-26T17:31:59;12.90;72.00
21734;DHT22;11029;47.820;10.534;2022-10-26T17:34:26;12.50;73.50
21734;DHT22;11029;47.820;10.534;2022-10-26T17:36:52;12.40;74.10
21734;DHT22;11029;47.820;10.534;2022-10-26T17:39:19;12.40;74.60
21734;DHT22;11029;47.820;10.534;2022-10-26T17:41:46;12.30;75.00
21734;DHT22;11029;47.820;10.534;2022-10-26T17:44:13;12.40;75.50
21734;DHT22;11029;47.820;10.534;2022-10-26T17:46:40;12.40;75.50
21734;DHT22;11029;47.820;10.534;2022-10-26T17:49:06;12.50;75.50
21734;DHT22;11029;47.820;10.534;2022-10-26T17:51:33;12.50;75.10
21734;DHT22;11029;47.820;10.534;2022-10-26T17:54:00;12.40;75.10
21734;DHT22;11029;47.820;10.534;2022-10-26T17:56:28;12.30;75.60
21734;DHT22;11029;47.820;10.534;2022-10-26T17:58:57;12.20;75.70
21734;DHT22;11029;47.820;10.534;2022-10-26T18:01:25;12.20;75.40